Terminal Aerodrome Forecast
Issued by NWS

Home | Current Version | Previous Version | Text Only | Print | Product List | Glossary On
Versions: 1 2 3 4 5 6 7 8 9 10 11 12 13
000
FTUS41 KBOX 222333 AAB
TAFHYA
TAF AMD
KHYA 222333Z 2300/2324 17008KT 5SM -RA BR SCT009 OVC025
     FM230500 19011G20KT 3SM SHRA BR OVC008
     FM230900 20010G21KT 3SM -SHRA BR OVC003
     FM231100 19007KT 3SM -SHRA BR OVC006
     FM231300 17006KT 2SM BR VCSH OVC003
     FM231500 09006KT 3SM BR VCSH OVC003
     FM231800 04006KT 6SM BR VCSH OVC008=

USA.gov is the U.S. government's official web portal to all federal, state and local government web resources and services.